createdAt,value
2017-06-22T00:00:23.326Z,1009.68
2017-06-22T00:01:33.249Z,1009.64
2017-06-22T00:02:42.847Z,1009.65
2017-06-22T00:03:52.751Z,1009.64
2017-06-22T00:05:02.963Z,1009.62
2017-06-22T00:06:12.569Z,1009.64
2017-06-22T00:07:21.866Z,1009.62
2017-06-22T00:08:32.070Z,1009.6
2017-06-22T00:09:41.364Z,1009.62
2017-06-22T00:10:51.278Z,1009.61
2017-06-22T00:12:01.497Z,1009.56
2017-06-22T00:13:11.416Z,1009.58
2017-06-22T00:14:20.722Z,1009.59
2017-06-22T00:15:30.322Z,1009.6
2017-06-22T00:16:40.227Z,1009.58
2017-06-22T00:17:50.150Z,1009.57
2017-06-22T00:18:59.455Z,1009.53
2017-06-22T00:20:09.379Z,1009.55
2017-06-22T00:21:19.290Z,1009.5
2017-06-22T00:22:29.201Z,1009.48
2017-06-22T00:23:39.429Z,1009.49
2017-06-22T00:24:49.351Z,1009.49
2017-06-22T00:25:59.269Z,1009.47
2017-06-22T00:27:09.189Z,1009.43
2017-06-22T00:28:18.842Z,1009.45
2017-06-22T00:29:29.078Z,1009.41
2017-06-22T00:30:39.013Z,1009.42
2017-06-22T00:31:48.920Z,1009.41
2017-06-22T00:32:58.836Z,1009.37
2017-06-22T00:34:08.744Z,1009.34
2017-06-22T00:35:18.344Z,1009.35
2017-06-22T00:36:28.578Z,1009.35
2017-06-22T00:37:38.480Z,1009.32
2017-06-22T00:38:48.090Z,1009.3
2017-06-22T00:39:57.690Z,1009.31
2017-06-22T00:41:07.595Z,1009.28
2017-06-22T00:42:17.819Z,1009.29
2017-06-22T00:43:27.750Z,1009.29
2017-06-22T00:44:37.360Z,1009.24
2017-06-22T00:45:47.281Z,1009.26
2017-06-22T00:46:57.504Z,1009.22
2017-06-22T00:48:07.723Z,1009.22
2017-06-22T00:49:17.634Z,1009.25
2017-06-22T00:50:27.693Z,1009.2
2017-06-22T00:51:36.985Z,1009.22
2017-06-22T00:52:47.201Z,1009.25
2017-06-22T00:53:57.107Z,1009.22
2017-06-22T00:55:07.325Z,1009.17
2017-06-22T00:56:17.541Z,1009.15
2017-06-22T00:57:26.852Z,1009.13
2017-06-22T00:58:36.154Z,1009.13
2017-06-22T00:59:46.432Z,1009.1
2017-06-22T01:00:56.684Z,1009.07
2017-06-22T01:02:06.300Z,1009.05
2017-06-22T01:03:16.580Z,1009.02
2017-06-22T01:04:26.504Z,1009.04
2017-06-22T01:05:36.713Z,1009
2017-06-22T01:06:46.638Z,1008.98
2017-06-22T01:07:56.236Z,1009.01
2017-06-22T01:09:06.157Z,1009
2017-06-22T01:10:16.381Z,1008.93
2017-06-22T01:11:26.283Z,1008.93
2017-06-22T01:12:36.202Z,1008.96
2017-06-22T01:13:46.121Z,1008.92
2017-06-22T01:14:56.336Z,1008.97
2017-06-22T01:16:05.942Z,1008.97
2017-06-22T01:17:15.549Z,1008.94
2017-06-22T01:18:25.159Z,1008.98
2017-06-22T01:19:34.778Z,1008.98
2017-06-22T01:20:44.991Z,1009.01
2017-06-22T01:21:54.589Z,1009.03
2017-06-22T01:23:04.656Z,1009.01
2017-06-22T01:24:14.866Z,1008.95
2017-06-22T01:25:24.776Z,1008.96
2017-06-22T01:26:34.378Z,1008.95
2017-06-22T01:27:43.691Z,1008.92
2017-06-22T01:28:53.608Z,1008.91
2017-06-22T01:30:03.213Z,1008.89
2017-06-22T01:31:13.142Z,1008.86
2017-06-22T01:32:22.754Z,1008.83
2017-06-22T01:33:32.350Z,1008.85
2017-06-22T01:34:42.278Z,1008.77
2017-06-22T01:35:51.878Z,1008.81
2017-06-22T01:37:01.789Z,1008.82
2017-06-22T01:38:12.001Z,1008.82
2017-06-22T01:39:21.615Z,1008.85
2017-06-22T01:40:30.609Z,1008.91
2017-06-22T01:41:40.522Z,1008.9
2017-06-22T01:42:50.424Z,1008.92
2017-06-22T01:44:00.022Z,1008.91
2017-06-22T01:45:09.620Z,1008.93
2017-06-22T01:46:18.917Z,1008.87
2017-06-22T01:47:28.828Z,1008.89
2017-06-22T01:48:39.060Z,1008.88
2017-06-22T01:49:48.672Z,1008.87
2017-06-22T01:50:58.278Z,1008.89
2017-06-22T01:52:08.497Z,1008.89
2017-06-22T01:53:18.727Z,1008.89
2017-06-22T01:54:28.642Z,1008.91
2017-06-22T01:55:38.558Z,1008.93
2017-06-22T01:56:48.467Z,1008.88
2017-06-22T01:57:58.082Z,1008.9
2017-06-22T01:59:08.295Z,1008.89
2017-06-22T02:00:18.505Z,1008.92
2017-06-22T02:01:28.438Z,1008.9
2017-06-22T02:02:38.660Z,1008.93
2017-06-22T02:03:48.258Z,1008.89
2017-06-22T02:04:58.156Z,1008.89
2017-06-22T02:06:08.377Z,1008.9
2017-06-22T02:07:18.292Z,1008.85
2017-06-22T02:08:27.904Z,1008.83
2017-06-22T02:09:37.823Z,1008.85
2017-06-22T02:10:47.139Z,1008.83
2017-06-22T02:11:57.055Z,1008.82
2017-06-22T02:13:07.292Z,1008.83
2017-06-22T02:14:17.211Z,1008.8
2017-06-22T02:15:27.117Z,1008.81
2017-06-22T02:16:37.355Z,1008.77
2017-06-22T02:17:47.274Z,1008.81
2017-06-22T02:18:57.198Z,1008.74
2017-06-22T02:20:07.116Z,1008.74
2017-06-22T02:21:17.337Z,1008.76
2017-06-22T02:22:27.544Z,1008.78
2017-06-22T02:23:37.448Z,1008.79
2017-06-22T02:24:47.052Z,1008.78
2017-06-22T02:25:57.266Z,1008.77
2017-06-22T02:27:07.191Z,1008.82
2017-06-22T02:28:17.407Z,1008.78
2017-06-22T02:29:27.019Z,1008.8
2017-06-22T02:30:36.921Z,1008.8
2017-06-22T02:31:46.538Z,1008.8
2017-06-22T02:32:56.141Z,1008.8
2017-06-22T02:34:05.767Z,1008.77
2017-06-22T02:35:15.364Z,1008.74
2017-06-22T02:36:24.963Z,1008.75
2017-06-22T02:37:34.885Z,1008.72
2017-06-22T02:38:44.955Z,1008.73
2017-06-22T02:39:54.868Z,1008.76
2017-06-22T02:41:04.465Z,1008.74
2017-06-22T02:42:14.684Z,1008.75
2017-06-22T02:43:24.900Z,1008.78
2017-06-22T02:44:35.120Z,1008.77
2017-06-22T02:45:45.025Z,1008.79
2017-06-22T02:46:54.936Z,1008.76
2017-06-22T02:48:04.546Z,1008.77
2017-06-22T02:49:14.457Z,1008.75
2017-06-22T02:50:24.062Z,1008.78
2017-06-22T02:51:33.969Z,1008.78
2017-06-22T02:52:43.895Z,1008.79
2017-06-22T02:53:53.507Z,1008.8
2017-06-22T02:55:03.111Z,1008.81
2017-06-22T02:56:13.018Z,1008.84
2017-06-22T02:57:22.630Z,1008.81
2017-06-22T02:58:32.538Z,1008.83
2017-06-22T02:59:41.523Z,1008.8
2017-06-22T03:00:51.440Z,1008.79
2017-06-22T03:02:01.362Z,1008.76
2017-06-22T03:03:11.270Z,1008.74
2017-06-22T03:04:21.173Z,1008.75
2017-06-22T03:05:31.082Z,1008.76
2017-06-22T03:06:41.003Z,1008.78
2017-06-22T03:07:50.915Z,1008.73
2017-06-22T03:09:00.520Z,1008.73
2017-06-22T03:10:10.135Z,1008.74
2017-06-22T03:11:20.350Z,1008.69
2017-06-22T03:12:29.958Z,1008.71
2017-06-22T03:13:39.859Z,1008.65
2017-06-22T03:14:49.768Z,1008.66
2017-06-22T03:15:59.375Z,1008.65
2017-06-22T03:17:08.680Z,1008.61
2017-06-22T03:18:18.594Z,1008.63
2017-06-22T03:19:28.198Z,1008.65
2017-06-22T03:20:38.111Z,1008.66
2017-06-22T03:21:48.327Z,1008.65
2017-06-22T03:22:58.571Z,1008.66
2017-06-22T03:24:08.492Z,1008.7
2017-06-22T03:25:18.098Z,1008.67
2017-06-22T03:26:28.012Z,1008.7
2017-06-22T03:27:37.923Z,1008.71
2017-06-22T03:28:48.143Z,1008.67
2017-06-22T03:29:58.069Z,1008.63
2017-06-22T03:31:08.279Z,1008.61
2017-06-22T03:32:18.502Z,1008.55
2017-06-22T03:33:28.112Z,1008.58
2017-06-22T03:34:38.331Z,1008.57
2017-06-22T03:35:47.923Z,1008.55
2017-06-22T03:36:58.281Z,1008.59
2017-06-22T03:38:08.200Z,1008.56
2017-06-22T03:39:18.427Z,1008.55
2017-06-22T03:40:28.336Z,1008.54
2017-06-22T03:41:38.263Z,1008.49
2017-06-22T03:42:48.182Z,1008.5
2017-06-22T03:43:57.781Z,1008.51
2017-06-22T03:45:07.383Z,1008.49
2017-06-22T03:46:17.296Z,1008.47
2017-06-22T03:47:27.517Z,1008.46
2017-06-22T03:48:37.431Z,1008.49
2017-06-22T03:49:47.333Z,1008.48
2017-06-22T03:50:57.232Z,1008.49
2017-06-22T03:52:07.167Z,1008.49
2017-06-22T03:53:17.103Z,1008.47
2017-06-22T03:54:27.020Z,1008.46
2017-06-22T03:55:36.627Z,1008.45
2017-06-22T03:56:46.236Z,1008.47
2017-06-22T03:57:55.560Z,1008.44
2017-06-22T03:59:05.769Z,1008.44
2017-06-22T04:00:15.681Z,1008.43
2017-06-22T04:01:25.937Z,1008.43
2017-06-22T04:02:35.236Z,1008.42
2017-06-22T04:03:45.141Z,1008.4
2017-06-22T04:04:55.048Z,1008.4
2017-06-22T04:06:05.130Z,1008.38
2017-06-22T04:07:14.730Z,1008.41
2017-06-22T04:08:24.401Z,1008.41
2017-06-22T04:09:34.317Z,1008.4
2017-06-22T04:10:44.531Z,1008.4
2017-06-22T04:11:54.438Z,1008.43
2017-06-22T04:13:04.658Z,1008.42
2017-06-22T04:14:14.876Z,1008.38
2017-06-22T04:15:24.478Z,1008.39
2017-06-22T04:16:34.390Z,1008.43
2017-06-22T04:17:43.999Z,1008.4
2017-06-22T04:18:54.230Z,1008.39
2017-06-22T04:20:04.451Z,1008.38
2017-06-22T04:21:14.351Z,1008.36
2017-06-22T04:22:24.261Z,1008.37
2017-06-22T04:23:34.180Z,1008.37
2017-06-22T04:24:44.097Z,1008.36
2017-06-22T04:25:53.698Z,1008.29
2017-06-22T04:27:03.318Z,1008.31
2017-06-22T04:28:13.248Z,1008.35
2017-06-22T04:29:22.236Z,1008.28
2017-06-22T04:30:32.145Z,1008.31
2017-06-22T04:31:42.066Z,1008.34
2017-06-22T04:32:51.983Z,1008.35
2017-06-22T04:34:02.229Z,1008.34
2017-06-22T04:35:12.463Z,1008.36
2017-06-22T04:36:22.677Z,1008.43
2017-06-22T04:37:32.280Z,1008.39
2017-06-22T04:38:42.499Z,1008.42
2017-06-22T04:39:52.105Z,1008.41
2017-06-22T04:41:02.396Z,1008.4
2017-06-22T04:42:12.311Z,1008.4
2017-06-22T04:43:22.226Z,1008.44
2017-06-22T04:44:32.444Z,1008.42
2017-06-22T04:45:42.061Z,1008.46
2017-06-22T04:46:51.404Z,1008.49
2017-06-22T04:48:01.322Z,1008.49
2017-06-22T04:49:11.055Z,1008.5
2017-06-22T04:50:20.976Z,1008.51
2017-06-22T04:51:30.894Z,1008.53
2017-06-22T04:52:40.803Z,1008.53
2017-06-22T04:53:50.729Z,1008.51
2017-06-22T04:55:00.668Z,1008.45
2017-06-22T04:56:10.899Z,1008.47
2017-06-22T04:57:20.215Z,1008.45
2017-06-22T04:58:30.429Z,1008.47
2017-06-22T04:59:40.081Z,1008.44
2017-06-22T05:00:50.009Z,1008.42
2017-06-22T05:02:00.250Z,1008.42
2017-06-22T05:03:09.889Z,1008.43
2017-06-22T05:04:19.203Z,1008.43
2017-06-22T05:05:29.419Z,1008.41
2017-06-22T05:06:39.363Z,1008.39
2017-06-22T05:07:48.669Z,1008.37
2017-06-22T05:08:57.970Z,1008.4
2017-06-22T05:10:07.889Z,1008.33
2017-06-22T05:11:17.804Z,1008.31
2017-06-22T05:12:28.027Z,1008.32
2017-06-22T05:13:37.633Z,1008.33
2017-06-22T05:14:46.926Z,1008.33
2017-06-22T05:15:56.531Z,1008.32
2017-06-22T05:17:06.152Z,1008.3
2017-06-22T05:18:16.070Z,1008.28
2017-06-22T05:19:25.990Z,1008.28
2017-06-22T05:20:35.290Z,1008.27
2017-06-22T05:21:45.220Z,1008.29
2017-06-22T05:22:55.431Z,1008.26
2017-06-22T05:24:05.350Z,1008.28
2017-06-22T05:25:15.253Z,1008.28
2017-06-22T05:26:24.549Z,1008.25
2017-06-22T05:27:34.155Z,1008.27
2017-06-22T05:28:44.382Z,1008.25
2017-06-22T05:29:54.309Z,1008.29
2017-06-22T05:31:04.222Z,1008.25
2017-06-22T05:32:14.152Z,1008.27
2017-06-22T05:33:24.071Z,1008.31
2017-06-22T05:34:34.314Z,1008.31
2017-06-22T05:35:44.236Z,1008.33
2017-06-22T05:36:54.164Z,1008.36
2017-06-22T05:38:03.460Z,1008.29
2017-06-22T05:39:13.060Z,1008.3
2017-06-22T05:40:23.281Z,1008.27
2017-06-22T05:41:32.897Z,1008.26
2017-06-22T05:42:42.185Z,1008.29
2017-06-22T05:43:52.410Z,1008.27
2017-06-22T05:45:02.322Z,1008.29
2017-06-22T05:46:12.244Z,1008.29
2017-06-22T05:47:22.167Z,1008.25
2017-06-22T05:48:32.374Z,1008.28
2017-06-22T05:49:42.292Z,1008.27
2017-06-22T05:50:51.884Z,1008.25
2017-06-22T05:52:02.112Z,1008.22
2017-06-22T05:53:12.020Z,1008.22
2017-06-22T05:54:21.313Z,1008.22
2017-06-22T05:55:31.695Z,1008.22
2017-06-22T05:56:41.305Z,1008.19
2017-06-22T05:57:51.229Z,1008.19
2017-06-22T05:59:01.145Z,1008.16
2017-06-22T06:00:11.063Z,1008.2
2017-06-22T06:01:21.287Z,1008.18
2017-06-22T06:02:31.375Z,1008.19
2017-06-22T06:03:40.977Z,1008.17
2017-06-22T06:04:50.921Z,1008.16
2017-06-22T06:06:00.540Z,1008.17
2017-06-22T06:07:10.761Z,1008.19
2017-06-22T06:08:20.668Z,1008.17
2017-06-22T06:09:30.578Z,1008.16
2017-06-22T06:10:40.497Z,1008.16
2017-06-22T06:11:50.109Z,1008.14
2017-06-22T06:13:00.021Z,1008.11
2017-06-22T06:14:09.935Z,1008.11
2017-06-22T06:15:19.838Z,1008.09
2017-06-22T06:16:29.748Z,1008.12
2017-06-22T06:17:39.045Z,1008.07
2017-06-22T06:18:48.346Z,1008.07
2017-06-22T06:19:57.952Z,1008.06
2017-06-22T06:21:07.875Z,1008.01
2017-06-22T06:22:17.177Z,1008.06
2017-06-22T06:23:27.090Z,1008.06
2017-06-22T06:24:36.996Z,1008.08
2017-06-22T06:25:46.905Z,1008.1
2017-06-22T06:26:56.820Z,1008.07
2017-06-22T06:28:06.736Z,1008.02
2017-06-22T06:29:16.663Z,1008.03
2017-06-22T06:30:25.989Z,1008.05
2017-06-22T06:31:36.272Z,1008.03
2017-06-22T06:32:46.200Z,1008.01
2017-06-22T06:33:56.446Z,1007.97
2017-06-22T06:35:06.372Z,1007.96
2017-06-22T06:36:16.603Z,1007.91
2017-06-22T06:37:26.530Z,1007.92
2017-06-22T06:38:36.455Z,1007.9
2017-06-22T06:39:46.075Z,1007.87
2017-06-22T06:40:55.711Z,1007.86
2017-06-22T06:42:05.939Z,1007.88
2017-06-22T06:43:16.172Z,1007.86
2017-06-22T06:44:25.777Z,1007.89
2017-06-22T06:45:35.387Z,1007.85
2017-06-22T06:46:44.990Z,1007.84
2017-06-22T06:47:55.228Z,1007.78
2017-06-22T06:49:04.238Z,1007.79
2017-06-22T06:50:13.887Z,1007.76
2017-06-22T06:51:24.153Z,1007.75
2017-06-22T06:52:33.797Z,1007.75
2017-06-22T06:53:43.721Z,1007.76
2017-06-22T06:54:53.953Z,1007.76
2017-06-22T06:56:04.193Z,1007.69
2017-06-22T06:57:14.137Z,1007.69
2017-06-22T06:58:23.450Z,1007.69
2017-06-22T06:59:33.766Z,1007.66
2017-06-22T07:00:43.374Z,1007.65
2017-06-22T07:01:53.308Z,1007.63
2017-06-22T07:03:02.931Z,1007.6
2017-06-22T07:04:13.161Z,1007.61
2017-06-22T07:05:22.798Z,1007.56
2017-06-22T07:06:32.413Z,1007.58
2017-06-22T07:07:42.029Z,1007.53
2017-06-22T07:08:51.646Z,1007.54
2017-06-22T07:10:01.886Z,1007.51
2017-06-22T07:11:11.814Z,1007.53
2017-06-22T07:12:21.437Z,1007.54
2017-06-22T07:13:31.397Z,1007.53
2017-06-22T07:14:41.325Z,1007.47
2017-06-22T07:15:51.246Z,1007.42
2017-06-22T07:17:00.254Z,1007.48
2017-06-22T07:18:09.918Z,1007.42
2017-06-22T07:19:19.832Z,1007.42
2017-06-22T07:20:29.448Z,1007.43
2017-06-22T07:21:39.358Z,1007.42
2017-06-22T07:22:49.275Z,1007.44
2017-06-22T07:23:59.202Z,1007.4
2017-06-22T07:25:09.143Z,1007.38
2017-06-22T07:26:18.760Z,1007.37
2017-06-22T07:27:29.002Z,1007.39
2017-06-22T07:28:38.919Z,1007.38
2017-06-22T07:29:49.168Z,1007.4
2017-06-22T07:30:59.092Z,1007.37
2017-06-22T07:32:09.026Z,1007.37
2017-06-22T07:33:18.957Z,1007.36
2017-06-22T07:34:28.885Z,1007.36
2017-06-22T07:35:39.124Z,1007.35
2017-06-22T07:36:49.355Z,1007.35
2017-06-22T07:37:59.274Z,1007.37
2017-06-22T07:39:09.499Z,1007.37
2017-06-22T07:40:19.723Z,1007.36
2017-06-22T07:41:29.949Z,1007.31
2017-06-22T07:42:39.271Z,1007.32
2017-06-22T07:43:48.890Z,1007.31
2017-06-22T07:44:58.813Z,1007.27
2017-06-22T07:46:08.731Z,1007.24
2017-06-22T07:47:18.673Z,1007.24
2017-06-22T07:48:28.610Z,1007.2
2017-06-22T07:49:38.858Z,1007.19
2017-06-22T07:50:48.467Z,1007.2
2017-06-22T07:51:58.688Z,1007.23
2017-06-22T07:53:08.627Z,1007.21
2017-06-22T07:54:18.591Z,1007.17
2017-06-22T07:55:28.516Z,1007.22
2017-06-22T07:56:38.136Z,1007.16
2017-06-22T07:57:47.751Z,1007.13
2017-06-22T07:58:57.678Z,1007.1
2017-06-22T08:00:07.291Z,1007.1
2017-06-22T08:01:17.520Z,1007.11
2017-06-22T08:02:27.135Z,1007.08
2017-06-22T08:03:37.401Z,1007.04
2017-06-22T08:04:47.640Z,1007.07
2017-06-22T08:05:57.873Z,1007.06
2017-06-22T08:07:07.192Z,1007.09
2017-06-22T08:08:16.500Z,1007.11
2017-06-22T08:09:26.740Z,1007.12
2017-06-22T08:10:36.666Z,1007.09
2017-06-22T08:11:46.353Z,1007.05
2017-06-22T08:12:56.586Z,1007.03
2017-06-22T08:14:06.499Z,1007.07
2017-06-22T08:15:16.735Z,1007.07
2017-06-22T08:16:26.361Z,1007.07
2017-06-22T08:17:35.705Z,1007.06
2017-06-22T08:18:45.941Z,1007.04
2017-06-22T08:19:55.244Z,1007.04
2017-06-22T08:21:05.203Z,1007.03
2017-06-22T08:22:14.812Z,1007.03
2017-06-22T08:23:24.429Z,1006.99
2017-06-22T08:24:33.437Z,1007.05
2017-06-22T08:25:43.067Z,1007.05
2017-06-22T08:26:52.995Z,1007.08
2017-06-22T08:28:02.913Z,1007.07
2017-06-22T08:29:13.132Z,1007
2017-06-22T08:30:23.055Z,1006.97
2017-06-22T08:31:33.290Z,1006.94
2017-06-22T08:32:42.604Z,1006.94
2017-06-22T08:33:52.219Z,1006.93
2017-06-22T08:35:02.604Z,1006.88
2017-06-22T08:36:12.554Z,1006.88
2017-06-22T08:37:22.478Z,1006.93
2017-06-22T08:38:32.420Z,1006.89
2017-06-22T08:39:42.334Z,1006.91
2017-06-22T08:40:51.948Z,1006.88
2017-06-22T08:42:01.565Z,1006.9
2017-06-22T08:43:11.495Z,1006.89
2017-06-22T08:44:21.413Z,1006.89
2017-06-22T08:45:31.349Z,1006.86
2017-06-22T08:46:41.584Z,1006.87
2017-06-22T08:47:51.532Z,1006.8
2017-06-22T08:49:00.835Z,1006.81
2017-06-22T08:50:10.454Z,1006.8
2017-06-22T08:51:20.411Z,1006.78
2017-06-22T08:52:30.653Z,1006.79
2017-06-22T08:53:40.303Z,1006.77
2017-06-22T08:54:49.289Z,1006.77
2017-06-22T08:55:59.508Z,1006.75
2017-06-22T08:57:09.126Z,1006.69
2017-06-22T08:58:19.354Z,1006.69
2017-06-22T08:59:28.986Z,1006.64
2017-06-22T09:00:38.621Z,1006.62
2017-06-22T09:01:47.959Z,1006.65
2017-06-22T09:02:57.578Z,1006.69
2017-06-22T09:04:07.202Z,1006.68
2017-06-22T09:05:16.826Z,1006.69
2017-06-22T09:06:27.080Z,1006.68
2017-06-22T09:07:36.388Z,1006.71
2017-06-22T09:08:45.389Z,1006.66
2017-06-22T09:09:55.308Z,1006.64
2017-06-22T09:11:04.678Z,1006.67
2017-06-22T09:12:14.609Z,1006.65
2017-06-22T09:13:24.224Z,1006.59
2017-06-22T09:14:33.853Z,1006.58
2017-06-22T09:15:43.782Z,1006.53
2017-06-22T09:16:53.726Z,1006.51
2017-06-22T09:18:03.363Z,1006.51
2017-06-22T09:19:13.304Z,1006.49
2017-06-22T09:20:22.934Z,1006.44
2017-06-22T09:21:32.553Z,1006.42
2017-06-22T09:22:42.488Z,1006.42
2017-06-22T09:23:52.712Z,1006.39
2017-06-22T09:25:02.626Z,1006.38
2017-06-22T09:26:12.277Z,1006.41
2017-06-22T09:27:22.218Z,1006.4
2017-06-22T09:28:31.520Z,1006.41
2017-06-22T09:29:41.133Z,1006.46
2017-06-22T09:30:50.753Z,1006.44
2017-06-22T09:32:00.675Z,1006.48
2017-06-22T09:33:10.295Z,1006.4
2017-06-22T09:34:20.742Z,1006.4
2017-06-22T09:35:30.067Z,1006.4
2017-06-22T09:36:40.309Z,1006.41
2017-06-22T09:37:50.545Z,1006.4
2017-06-22T09:38:59.848Z,1006.34
2017-06-22T09:40:09.785Z,1006.36
2017-06-22T09:41:19.392Z,1006.33
2017-06-22T09:42:28.697Z,1006.33
2017-06-22T09:43:38.327Z,1006.31
2017-06-22T09:44:48.253Z,1006.32
2017-06-22T09:45:57.882Z,1006.29
2017-06-22T09:47:07.820Z,1006.26
2017-06-22T09:48:18.085Z,1006.27
2017-06-22T09:49:28.012Z,1006.27
2017-06-22T09:50:37.646Z,1006.26
2017-06-22T09:51:47.570Z,1006.23
2017-06-22T09:52:57.263Z,1006.3
2017-06-22T09:54:07.498Z,1006.28
2017-06-22T09:55:17.118Z,1006.25
2017-06-22T09:56:27.042Z,1006.21
2017-06-22T09:57:36.974Z,1006.15
2017-06-22T09:58:46.892Z,1006.11
2017-06-22T09:59:56.820Z,1006.12
2017-06-22T10:01:06.750Z,1006.14
2017-06-22T10:02:16.673Z,1006.08
2017-06-22T10:03:26.291Z,1006.1
2017-06-22T10:04:35.935Z,1006.04
2017-06-22T10:05:46.177Z,1006.06
2017-06-22T10:06:56.102Z,1006.04
2017-06-22T10:08:05.728Z,1006.01
2017-06-22T10:09:15.955Z,1006.05
2017-06-22T10:10:24.980Z,1006.06
2017-06-22T10:11:34.611Z,1006.05
2017-06-22T10:12:44.225Z,1006
2017-06-22T10:13:54.464Z,1006.01
2017-06-22T10:15:04.089Z,1005.98
2017-06-22T10:16:13.713Z,1005.96
2017-06-22T10:17:23.328Z,1006
2017-06-22T10:18:33.249Z,1006
2017-06-22T10:19:42.591Z,1005.98
2017-06-22T10:20:52.819Z,1005.97
2017-06-22T10:22:03.055Z,1005.94
2017-06-22T10:23:12.724Z,1005.95
2017-06-22T10:24:22.757Z,1005.95
2017-06-22T10:25:33.160Z,1005.99
2017-06-22T10:26:43.090Z,1005.92
2017-06-22T10:27:53.040Z,1005.96
2017-06-22T10:29:02.954Z,1005.96
2017-06-22T10:30:12.884Z,1006.03
2017-06-22T10:31:23.100Z,1006.02
2017-06-22T10:32:33.025Z,1006.02
2017-06-22T10:33:42.965Z,1006
2017-06-22T10:34:52.897Z,1005.98
2017-06-22T10:36:02.505Z,1005.96
2017-06-22T10:37:12.118Z,1005.94
2017-06-22T10:38:21.734Z,1005.9
2017-06-22T10:39:32.005Z,1005.92
2017-06-22T10:40:42.235Z,1005.8
2017-06-22T10:41:52.155Z,1005.84
2017-06-22T10:43:02.389Z,1005.92
2017-06-22T10:44:12.339Z,1005.92
2017-06-22T10:45:21.954Z,1005.86
2017-06-22T10:46:31.570Z,1005.91
2017-06-22T10:47:41.802Z,1005.88
2017-06-22T10:48:51.423Z,1005.88
2017-06-22T10:50:01.057Z,1005.83
2017-06-22T10:51:10.988Z,1005.81
2017-06-22T10:52:20.610Z,1005.82
2017-06-22T10:53:30.218Z,1005.83
2017-06-22T10:54:40.150Z,1005.83
2017-06-22T10:55:50.075Z,1005.78
2017-06-22T10:57:00.305Z,1005.72
2017-06-22T10:58:10.228Z,1005.74
2017-06-22T10:59:19.548Z,1005.74
2017-06-22T11:00:29.485Z,1005.69
2017-06-22T11:01:39.438Z,1005.72
2017-06-22T11:02:49.437Z,1005.62
2017-06-22T11:03:59.069Z,1005.73
2017-06-22T11:05:08.684Z,1005.69
2017-06-22T11:06:18.623Z,1005.6
2017-06-22T11:07:28.276Z,1005.66
2017-06-22T11:08:37.911Z,1005.7
2017-06-22T11:09:47.231Z,1005.67
2017-06-22T11:10:56.876Z,1005.64
2017-06-22T11:12:06.794Z,1005.6
2017-06-22T11:13:17.031Z,1005.62
2017-06-22T11:14:26.977Z,1005.61
2017-06-22T11:15:36.616Z,1005.6
2017-06-22T11:16:46.228Z,1005.61
2017-06-22T11:17:56.150Z,1005.6
2017-06-22T11:19:05.762Z,1005.56
2017-06-22T11:20:15.674Z,1005.58
2017-06-22T11:21:25.902Z,1005.6
2017-06-22T11:22:36.150Z,1005.61
2017-06-22T11:23:45.462Z,1005.57
2017-06-22T11:24:55.089Z,1005.56
2017-06-22T11:26:05.015Z,1005.56
2017-06-22T11:27:14.620Z,1005.49
2017-06-22T11:28:24.548Z,1005.56
2017-06-22T11:29:34.474Z,1005.49
2017-06-22T11:30:44.415Z,1005.55
2017-06-22T11:31:54.032Z,1005.53
2017-06-22T11:33:03.335Z,1005.5
2017-06-22T11:34:13.255Z,1005.5
2017-06-22T11:35:23.475Z,1005.53
2017-06-22T11:36:33.395Z,1005.48
2017-06-22T11:37:43.320Z,1005.49
2017-06-22T11:38:53.243Z,1005.47
2017-06-22T11:40:03.163Z,1005.41
2017-06-22T11:41:12.791Z,1005.38
2017-06-22T11:42:22.397Z,1005.4
2017-06-22T11:43:32.314Z,1005.37
2017-06-22T11:44:41.933Z,1005.34
2017-06-22T11:45:51.553Z,1005.43
2017-06-22T11:47:01.171Z,1005.38
2017-06-22T11:48:10.500Z,1005.41
2017-06-22T11:49:19.194Z,1005.35
2017-06-22T11:50:29.117Z,1005.29
2017-06-22T11:51:38.757Z,1005.27
2017-06-22T11:52:48.683Z,1005.25
2017-06-22T11:53:58.908Z,1005.24
2017-06-22T11:55:09.136Z,1005.23
2017-06-22T11:56:18.752Z,1005.2
2017-06-22T11:57:28.668Z,1005.16
2017-06-22T11:58:38.915Z,1005.17
2017-06-22T11:59:48.549Z,1005.08
2017-06-22T12:00:58.160Z,1005.16
2017-06-22T12:02:08.122Z,1005.11
2017-06-22T12:03:17.422Z,1005.07
2017-06-22T12:04:27.349Z,1005.07
2017-06-22T12:05:36.958Z,1005.04
2017-06-22T12:06:46.887Z,1005.08
2017-06-22T12:07:57.115Z,1005.02
2017-06-22T12:09:06.495Z,1005
2017-06-22T12:10:16.116Z,1004.93
2017-06-22T12:11:25.731Z,1004.91
2017-06-22T12:12:35.049Z,1004.94
2017-06-22T12:13:44.359Z,1004.9
2017-06-22T12:14:53.970Z,1004.86
2017-06-22T12:16:03.889Z,1004.89
2017-06-22T12:17:13.808Z,1004.92
2017-06-22T12:18:23.748Z,1004.87
2017-06-22T12:19:33.702Z,1004.84
2017-06-22T12:20:43.627Z,1004.82
2017-06-22T12:21:53.251Z,1004.81
2017-06-22T12:23:03.171Z,1004.85
2017-06-22T12:24:13.113Z,1004.81
2017-06-22T12:25:23.361Z,1004.76
2017-06-22T12:26:33.306Z,1004.72
2017-06-22T12:27:42.933Z,1004.63
2017-06-22T12:28:52.858Z,1004.62
2017-06-22T12:30:02.163Z,1004.64
2017-06-22T12:31:12.385Z,1004.61
2017-06-22T12:32:22.320Z,1004.63
2017-06-22T12:33:32.562Z,1004.57
2017-06-22T12:34:42.191Z,1004.61
2017-06-22T12:35:52.126Z,1004.62
2017-06-22T12:37:02.093Z,1004.58
2017-06-22T12:38:12.333Z,1004.5
2017-06-22T12:39:21.648Z,1004.45
2017-06-22T12:40:30.652Z,1004.51
2017-06-22T12:41:40.884Z,1004.44
2017-06-22T12:42:51.112Z,1004.33
2017-06-22T12:44:01.034Z,1004.42
2017-06-22T12:45:10.966Z,1004.36
2017-06-22T12:46:20.890Z,1004.3
2017-06-22T12:47:30.831Z,1004.39
2017-06-22T12:48:40.759Z,1004.32
2017-06-22T12:49:50.374Z,1004.31
2017-06-22T12:50:59.375Z,1004.29
2017-06-22T12:52:09.000Z,1004.25
2017-06-22T12:53:18.927Z,1004.23
2017-06-22T12:54:28.542Z,1004.24
2017-06-22T12:55:38.788Z,1004.22
2017-06-22T12:56:48.112Z,1004.27
2017-06-22T12:57:58.047Z,1004.21
2017-06-22T12:59:07.969Z,1004.26
2017-06-22T13:00:17.887Z,1004.33
2017-06-22T13:01:27.803Z,1004.26
2017-06-22T13:02:37.440Z,1004.25
2017-06-22T13:03:47.360Z,1004.23
2017-06-22T13:04:56.976Z,1004.18
2017-06-22T13:06:06.887Z,1004.18
2017-06-22T13:07:16.498Z,1004.14
2017-06-22T13:08:26.732Z,1004.11
2017-06-22T13:09:36.642Z,1004.24
2017-06-22T13:10:46.872Z,1004.17
2017-06-22T13:11:56.799Z,1004.16
2017-06-22T13:13:06.409Z,1004.17
2017-06-22T13:14:16.342Z,1004.14
2017-06-22T13:15:26.266Z,1004.17
2017-06-22T13:16:36.199Z,1004.22
2017-06-22T13:17:46.132Z,1004.27
2017-06-22T13:18:56.363Z,1004.35
2017-06-22T13:20:06.038Z,1004.35
2017-06-22T13:21:15.976Z,1004.33
2017-06-22T13:22:25.897Z,1004.33
2017-06-22T13:23:35.823Z,1004.28
2017-06-22T13:24:45.445Z,1004.26
2017-06-22T13:25:55.063Z,1004.25
2017-06-22T13:27:05.311Z,1004.23
2017-06-22T13:28:14.929Z,1004.21
2017-06-22T13:29:24.860Z,1004.25
2017-06-22T13:30:34.787Z,1004.23
2017-06-22T13:31:44.103Z,1004.2
2017-06-22T13:32:53.413Z,1004.21
2017-06-22T13:34:03.669Z,1004.2
2017-06-22T13:35:13.591Z,1004.18
2017-06-22T13:36:23.532Z,1004.18
2017-06-22T13:37:32.543Z,1004.2
2017-06-22T13:38:42.478Z,1004.19
2017-06-22T13:39:52.408Z,1004.24
2017-06-22T13:41:02.329Z,1004.2
2017-06-22T13:42:11.946Z,1004.22
2017-06-22T13:43:21.577Z,1004.16
2017-06-22T13:44:31.506Z,1004.16
2017-06-22T13:45:41.442Z,1004.21
2017-06-22T13:46:51.382Z,1004.17
2017-06-22T13:48:00.686Z,1004.21
2017-06-22T13:49:10.001Z,1004.12
2017-06-22T13:50:19.297Z,1004.12
2017-06-22T13:51:29.209Z,1004.1
2017-06-22T13:52:39.150Z,1004.11
2017-06-22T13:53:48.766Z,1004.04
2017-06-22T13:54:58.687Z,1004
2017-06-22T13:56:08.619Z,1003.95
2017-06-22T13:57:18.864Z,1003.96
2017-06-22T13:58:28.782Z,1004
2017-06-22T13:59:38.713Z,1004.06
2017-06-22T14:00:48.343Z,1004.15
2017-06-22T14:01:58.279Z,1004.23
2017-06-22T14:03:07.915Z,1004.28
2017-06-22T14:04:17.865Z,1004.36
2017-06-22T14:05:28.115Z,1004.34
2017-06-22T14:06:38.041Z,1004.4
2017-06-22T14:07:47.956Z,1004.36